createdAt,value
2023-03-04T00:01:15.934Z,100570.69
2023-03-04T00:04:18.621Z,100573.28
2023-03-04T00:07:20.955Z,100575.87
2023-03-04T00:10:23.520Z,100575.03
2023-03-04T00:13:26.096Z,100578.44
2023-03-04T00:16:28.791Z,100571.59
2023-03-04T00:19:31.457Z,100578.44
2023-03-04T00:22:34.197Z,100570.75
2023-03-04T00:25:36.450Z,100569.91
2023-03-04T00:28:39.944Z,100577.62
2023-03-04T00:31:42.329Z,100571.63
2023-03-04T00:34:44.946Z,100564.75
2023-03-04T00:37:47.302Z,100563.94
2023-03-04T00:40:50.969Z,100567.34
2023-03-04T00:43:53.302Z,100571.63
2023-03-04T00:46:56.009Z,100568.19
2023-03-04T00:49:58.266Z,100564.75
2023-03-04T00:53:02.014Z,100557.06
2023-03-04T00:56:04.549Z,100554.47
2023-03-04T00:59:07.461Z,100552.78
2023-03-04T01:02:10.498Z,100551.91
2023-03-04T01:05:13.298Z,100552.78
2023-03-04T01:08:15.730Z,100551.94
2023-03-04T01:11:18.377Z,100547.62
2023-03-04T01:14:22.392Z,100541.66
2023-03-04T01:17:25.364Z,100545.06
2023-03-04T01:20:27.682Z,100536.53
2023-03-04T01:23:30.408Z,100544.25
2023-03-04T01:26:32.790Z,100528.81
2023-03-04T01:29:42.811Z,100533.91
2023-03-04T01:32:45.533Z,100532.22
2023-03-04T01:35:50.696Z,100536.50
2023-03-04T01:38:53.436Z,100524.53
2023-03-04T01:41:56.055Z,100527.06
2023-03-04T01:44:58.628Z,100516.81
2023-03-04T01:48:01.432Z,100519.38
2023-03-04T01:51:04.903Z,100514.25
2023-03-04T01:54:07.537Z,100515.13
2023-03-04T01:57:16.571Z,100516.81
2023-03-04T02:00:24.776Z,100503.09
2023-03-04T02:03:27.448Z,100506.53
2023-03-04T02:06:29.784Z,100508.22
2023-03-04T02:09:34.332Z,100503.06
2023-03-04T02:12:36.793Z,100498.75
2023-03-04T02:15:39.938Z,100504.69
2023-03-04T02:18:42.671Z,100497.87
2023-03-04T02:21:45.287Z,100496.16
2023-03-04T02:24:54.311Z,100494.41
2023-03-04T02:27:56.955Z,100488.44
2023-03-04T02:30:59.385Z,100485.03
2023-03-04T02:34:04.406Z,100480.72
2023-03-04T02:37:06.760Z,100475.56
2023-03-04T02:40:14.968Z,100479.88
2023-03-04T02:43:17.422Z,100473.84
2023-03-04T02:46:22.666Z,100472.16
2023-03-04T02:49:26.179Z,100462.72
2023-03-04T02:52:29.513Z,100455.88
2023-03-04T02:55:33.453Z,100460.94
2023-03-04T02:58:38.268Z,100460.97
2023-03-04T03:01:40.860Z,100462.62
2023-03-04T03:04:43.669Z,100460.03
2023-03-04T03:07:47.067Z,100463.47
2023-03-04T03:10:50.134Z,100459.19
2023-03-04T03:13:53.027Z,100460.00
2023-03-04T03:16:55.998Z,100456.56
2023-03-04T03:19:58.412Z,100448.03
2023-03-04T03:23:08.266Z,100439.50
2023-03-04T03:26:11.201Z,100442.09
2023-03-04T03:29:14.377Z,100442.91
2023-03-04T03:32:17.180Z,100430.09
2023-03-04T03:35:19.950Z,100424.97
2023-03-04T03:38:22.312Z,100435.19
2023-03-04T03:41:24.971Z,100434.31
2023-03-04T03:44:27.368Z,100430.88
2023-03-04T03:47:29.957Z,100434.28
2023-03-04T03:50:33.470Z,100437.66
2023-03-04T03:53:36.293Z,100431.69
2023-03-04T03:56:38.659Z,100435.06
2023-03-04T03:59:41.334Z,100429.09
2023-03-04T04:02:44.087Z,100432.56
2023-03-04T04:05:46.725Z,100431.66
2023-03-04T04:08:49.032Z,100422.31
2023-03-04T04:11:51.806Z,100426.56
2023-03-04T04:14:54.285Z,100431.69
2023-03-04T04:17:56.910Z,100422.34
2023-03-04T04:20:59.261Z,100416.41
2023-03-04T04:24:01.909Z,100430.00
2023-03-04T04:27:04.486Z,100432.50
2023-03-04T04:30:07.545Z,100435.91
2023-03-04T04:33:10.535Z,100426.50
2023-03-04T04:36:14.580Z,100435.06
2023-03-04T04:39:16.872Z,100430.78
2023-03-04T04:42:19.596Z,100429.87
2023-03-04T04:45:21.920Z,100421.28
2023-03-04T04:48:24.685Z,100418.72
2023-03-04T04:51:27.287Z,100418.69
2023-03-04T04:54:29.985Z,100420.44
2023-03-04T04:57:33.242Z,100422.09
2023-03-04T05:00:35.849Z,100420.34
2023-03-04T05:03:38.751Z,100421.13
2023-03-04T05:06:41.496Z,100427.06
2023-03-04T05:09:45.159Z,100415.19
2023-03-04T05:12:47.775Z,100422.00
2023-03-04T05:15:53.481Z,100410.91
2023-03-04T05:18:56.263Z,100425.38
2023-03-04T05:21:59.165Z,100422.88
2023-03-04T05:25:01.853Z,100420.41
2023-03-04T05:28:05.026Z,100426.44
2023-03-04T05:31:07.717Z,100422.19
2023-03-04T05:34:10.087Z,100420.53
2023-03-04T05:37:12.767Z,100419.69
2023-03-04T05:40:15.136Z,100427.34
2023-03-04T05:43:17.810Z,100429.12
2023-03-04T05:46:26.187Z,100420.59
2023-03-04T05:49:28.956Z,100425.75
2023-03-04T05:52:31.816Z,100429.16
2023-03-04T05:55:34.438Z,100430.06
2023-03-04T05:58:36.910Z,100431.81
2023-03-04T06:01:39.750Z,100429.28
2023-03-04T06:04:42.276Z,100434.44
2023-03-04T06:07:44.818Z,100437.03
2023-03-04T06:10:47.378Z,100449.88
2023-03-04T06:13:49.800Z,100446.47
2023-03-04T06:16:52.503Z,100456.75
2023-03-04T06:19:54.829Z,100455.09
2023-03-04T06:22:57.717Z,100454.25
2023-03-04T06:26:00.772Z,100459.41
2023-03-04T06:29:04.620Z,100459.44
2023-03-04T06:32:07.025Z,100469.69
2023-03-04T06:35:10.681Z,100459.50
2023-03-04T06:38:12.988Z,100465.47
2023-03-04T06:41:15.724Z,100463.75
2023-03-04T06:44:18.158Z,100467.09
2023-03-04T06:47:20.827Z,100466.44
2023-03-04T06:50:23.249Z,100470.16
2023-03-04T06:53:25.843Z,100468.97
2023-03-04T06:56:28.175Z,100470.63
2023-03-04T06:59:31.144Z,100467.03
2023-03-04T07:02:34.092Z,100466.81
2023-03-04T07:05:36.681Z,100460.63
2023-03-04T07:08:39.542Z,100453.50
2023-03-04T07:11:42.115Z,100452.16
2023-03-04T07:14:44.503Z,100455.62
2023-03-04T07:17:47.105Z,100449.41
2023-03-04T07:20:52.097Z,100455.03
2023-03-04T07:23:55.178Z,100454.25
2023-03-04T07:26:57.602Z,100446.78
2023-03-04T07:30:00.239Z,100452.16
2023-03-04T07:33:02.573Z,100457.00
2023-03-04T07:36:05.360Z,100453.97
2023-03-04T07:39:08.053Z,100455.78
2023-03-04T07:42:11.015Z,100446.63
2023-03-04T07:45:14.423Z,100445.31
2023-03-04T07:48:17.161Z,100444.44
2023-03-04T07:51:20.799Z,100447.69
2023-03-04T07:54:23.469Z,100425.88
2023-03-04T07:57:25.845Z,100436.63
2023-03-04T08:00:28.582Z,100439.41
2023-03-04T08:03:31.250Z,100452.09
2023-03-04T08:06:33.914Z,100435.50
2023-03-04T08:09:36.768Z,100450.31
2023-03-04T08:12:39.111Z,100451.13
2023-03-04T08:15:42.582Z,100446.31
2023-03-04T08:18:45.547Z,100454.88
2023-03-04T08:21:48.402Z,100448.59
2023-03-04T08:24:50.855Z,100453.31
2023-03-04T08:27:53.626Z,100438.88
2023-03-04T08:30:56.793Z,100440.09
2023-03-04T08:33:59.989Z,100442.19
2023-03-04T08:37:02.303Z,100445.09
2023-03-04T08:40:05.224Z,100442.78
2023-03-04T08:43:07.824Z,100438.94
2023-03-04T08:46:10.722Z,100438.53
2023-03-04T08:49:14.530Z,100427.31
2023-03-04T08:52:17.275Z,100425.69
2023-03-04T08:55:20.337Z,100422.56
2023-03-04T08:58:22.933Z,100423.53
2023-03-04T09:01:27.490Z,100424.75
2023-03-04T09:04:30.143Z,100417.03
2023-03-04T09:07:32.615Z,100414.66
2023-03-04T09:10:35.233Z,100409.28
2023-03-04T09:13:37.591Z,100407.78
2023-03-04T09:16:40.198Z,100406.72
2023-03-04T09:19:42.721Z,100409.66
2023-03-04T09:22:45.494Z,100396.19
2023-03-04T09:25:49.279Z,100403.16
2023-03-04T09:28:53.636Z,100400.06
2023-03-04T09:31:55.938Z,100407.34
2023-03-04T09:34:58.679Z,100404.13
2023-03-04T09:38:00.901Z,100396.66
2023-03-04T09:41:07.111Z,100403.69
2023-03-04T09:44:24.209Z,100394.75
2023-03-04T09:47:27.005Z,100390.53
2023-03-04T09:50:33.660Z,100395.22
2023-03-04T09:53:42.530Z,100388.25
2023-03-04T09:56:44.870Z,100385.44
2023-03-04T09:59:54.885Z,100397.19
2023-03-04T10:03:13.186Z,100396.41
2023-03-04T10:06:18.011Z,100376.37
2023-03-04T10:09:26.270Z,100382.91
2023-03-04T10:12:31.391Z,100379.19
2023-03-04T10:15:39.517Z,100373.38
2023-03-04T10:19:02.045Z,100381.53
2023-03-04T10:22:15.500Z,100365.13
2023-03-04T10:25:23.254Z,100352.84
2023-03-04T10:28:30.300Z,100360.78
2023-03-04T10:31:35.212Z,100360.44
2023-03-04T10:34:37.569Z,100355.66
2023-03-04T10:37:45.283Z,100359.53
2023-03-04T10:40:47.602Z,100356.28
2023-03-04T10:44:00.115Z,100358.87
2023-03-04T10:47:02.506Z,100335.41
2023-03-04T10:50:05.667Z,100333.31
2023-03-04T10:53:21.794Z,100334.50
2023-03-04T10:56:33.896Z,100326.81
2023-03-04T10:59:55.041Z,100326.53
2023-03-04T11:03:16.649Z,100318.47
2023-03-04T11:06:22.694Z,100308.44
2023-03-04T11:09:27.885Z,100313.22
2023-03-04T11:12:34.838Z,100306.50
2023-03-04T11:15:55.575Z,100303.91
2023-03-04T11:19:03.929Z,100302.13
2023-03-04T11:22:06.678Z,100315.53
2023-03-04T11:25:21.329Z,100312.28
2023-03-04T11:28:47.068Z,100306.28
2023-03-04T11:31:50.452Z,100296.25
2023-03-04T11:34:56.506Z,100301.00
2023-03-04T11:38:17.688Z,100292.59
2023-03-04T11:41:37.787Z,100283.44
2023-03-04T11:44:41.736Z,100278.25
2023-03-04T11:47:51.444Z,100277.81
2023-03-04T11:50:57.140Z,100278.81
2023-03-04T11:54:12.010Z,100265.03
2023-03-04T11:57:26.527Z,100270.09
2023-03-04T12:00:29.295Z,100269.06
2023-03-04T12:03:41.519Z,100262.84
2023-03-04T12:06:43.861Z,100263.22
2023-03-04T12:09:52.486Z,100256.91
2023-03-04T12:13:02.050Z,100243.31
2023-03-04T12:16:17.478Z,100244.78
2023-03-04T12:19:26.432Z,100237.66
2023-03-04T12:22:35.611Z,100234.88
2023-03-04T12:25:48.826Z,100225.12
2023-03-04T12:28:58.782Z,100202.41
2023-03-04T12:32:04.310Z,100202.50
2023-03-04T12:35:20.577Z,100204.00
2023-03-04T12:38:23.545Z,100195.25
2023-03-04T12:41:35.351Z,100199.19
2023-03-04T12:44:48.272Z,100191.84
2023-03-04T12:47:50.773Z,100192.69
2023-03-04T12:50:56.395Z,100198.41
2023-03-04T12:54:13.454Z,100194.13
2023-03-04T12:57:22.972Z,100184.03
2023-03-04T13:00:29.847Z,100186.91
2023-03-04T13:03:52.006Z,100188.31
2023-03-04T13:07:13.789Z,100182.81
2023-03-04T13:10:20.172Z,100169.69
2023-03-04T13:13:41.561Z,100159.53
2023-03-04T13:16:44.896Z,100151.63
2023-03-04T13:19:49.060Z,100147.00
2023-03-04T13:22:58.103Z,100144.28
2023-03-04T13:26:03.547Z,100139.34
2023-03-04T13:29:09.614Z,100124.59
2023-03-04T13:32:12.484Z,100134.63
2023-03-04T13:35:33.525Z,100125.81
2023-03-04T13:38:37.428Z,100117.66
2023-03-04T13:41:47.141Z,100125.47
2023-03-04T13:44:57.204Z,100109.56
2023-03-04T13:48:00.191Z,100106.00
2023-03-04T13:51:02.929Z,100096.69
2023-03-04T13:54:14.013Z,100103.44
2023-03-04T13:57:18.457Z,100098.59
2023-03-04T14:00:20.894Z,100094.00
2023-03-04T14:03:32.415Z,100091.87
2023-03-04T14:06:34.669Z,100091.13
2023-03-04T14:09:37.336Z,100083.84
2023-03-04T14:12:59.232Z,100083.12
2023-03-04T14:16:01.840Z,100086.47
2023-03-04T14:19:06.664Z,100090.25
2023-03-04T14:22:28.019Z,100076.09
2023-03-04T14:25:36.671Z,100083.12
2023-03-04T14:28:43.815Z,100079.12
2023-03-04T14:31:46.478Z,100079.72
2023-03-04T14:34:50.391Z,100079.72
2023-03-04T14:37:52.666Z,100083.66
2023-03-04T14:41:15.600Z,100085.66
2023-03-04T14:44:23.844Z,100088.47
2023-03-04T14:47:38.157Z,100081.53
2023-03-04T14:50:48.053Z,100087.38
2023-03-04T14:53:54.968Z,100090.38
2023-03-04T14:56:58.878Z,100088.88
2023-03-04T15:00:14.815Z,100084.94
2023-03-04T15:03:21.827Z,100083.59
2023-03-04T15:06:26.057Z,100085.63
2023-03-04T15:09:28.359Z,100093.53
2023-03-04T15:12:32.933Z,100090.84
2023-03-04T15:15:39.794Z,100087.50
2023-03-04T15:18:54.418Z,100084.19
2023-03-04T15:22:04.728Z,100098.44
2023-03-04T15:25:07.570Z,100085.03
2023-03-04T15:28:16.889Z,100090.75
2023-03-04T15:31:21.399Z,100088.81
2023-03-04T15:34:23.716Z,100090.34
2023-03-04T15:37:27.847Z,100085.69
2023-03-04T15:40:40.154Z,100082.72
2023-03-04T15:43:42.714Z,100075.41
2023-03-04T15:46:45.033Z,100080.25
2023-03-04T15:49:47.765Z,100079.78
2023-03-04T15:52:51.220Z,100080.97
2023-03-04T15:55:54.346Z,100082.19
2023-03-04T15:58:58.803Z,100087.72
2023-03-04T16:02:01.501Z,100085.44
2023-03-04T16:05:04.315Z,100081.47
2023-03-04T16:08:06.946Z,100080.87
2023-03-04T16:11:35.965Z,100074.19
2023-03-04T16:14:38.858Z,100075.53
2023-03-04T16:17:44.007Z,100073.28
2023-03-04T16:20:47.963Z,100059.78
2023-03-04T16:23:51.717Z,100078.22
2023-03-04T16:26:54.003Z,100073.91
2023-03-04T16:29:56.619Z,100081.22
2023-03-04T16:33:00.390Z,100084.81
2023-03-04T16:36:04.127Z,100075.63
2023-03-04T16:39:09.386Z,100080.13
2023-03-04T16:42:16.832Z,100082.81
2023-03-04T16:45:23.528Z,100084.09
2023-03-04T16:48:26.280Z,100093.56
2023-03-04T16:51:30.567Z,100090.34
2023-03-04T16:54:34.785Z,100095.03
2023-03-04T16:57:37.111Z,100093.25
2023-03-04T17:00:39.881Z,100093.84
2023-03-04T17:03:42.372Z,100095.47
2023-03-04T17:06:45.222Z,100090.56
2023-03-04T17:09:47.626Z,100092.34
2023-03-04T17:12:50.934Z,100091.59
2023-03-04T17:15:53.276Z,100097.03
2023-03-04T17:18:56.093Z,100093.78
2023-03-04T17:22:02.246Z,100100.78
2023-03-04T17:25:05.079Z,100097.22
2023-03-04T17:28:07.449Z,100106.81
2023-03-04T17:31:11.516Z,100115.66
2023-03-04T17:34:14.030Z,100113.94
2023-03-04T17:37:16.727Z,100097.59
2023-03-04T17:40:19.155Z,100104.81
2023-03-04T17:43:22.074Z,100102.31
2023-03-04T17:46:28.459Z,100109.22
2023-03-04T17:49:31.282Z,100110.19
2023-03-04T17:52:34.035Z,100105.13
2023-03-04T17:55:36.683Z,100107.84
2023-03-04T17:58:39.745Z,100110.53
2023-03-04T18:01:45.057Z,100114.94
2023-03-04T18:04:50.174Z,100107.38
2023-03-04T18:07:52.605Z,100115.97
2023-03-04T18:10:55.432Z,100111.06
2023-03-04T18:13:57.879Z,100116.28
2023-03-04T18:17:00.517Z,100119.06
2023-03-04T18:20:03.066Z,100126.97
2023-03-04T18:23:05.794Z,100120.16
2023-03-04T18:26:08.234Z,100126.34
2023-03-04T18:29:14.669Z,100129.00
2023-03-04T18:32:17.123Z,100136.84
2023-03-04T18:35:20.269Z,100149.03
2023-03-04T18:38:22.632Z,100142.25
2023-03-04T18:41:27.546Z,100150.19
2023-03-04T18:44:30.280Z,100155.50
2023-03-04T18:47:34.094Z,100154.75
2023-03-04T18:50:36.547Z,100153.13
2023-03-04T18:53:39.784Z,100160.16
2023-03-04T18:56:50.953Z,100173.22
2023-03-04T18:59:56.624Z,100170.81
2023-03-04T19:03:06.299Z,100172.69
2023-03-04T19:06:09.414Z,100172.69
2023-03-04T19:09:12.461Z,100176.25
2023-03-04T19:12:15.293Z,100172.06
2023-03-04T19:15:18.371Z,100169.63
2023-03-04T19:18:21.172Z,100168.88
2023-03-04T19:21:23.753Z,100180.03
2023-03-04T19:24:26.454Z,100178.41
2023-03-04T19:27:28.869Z,100186.13
2023-03-04T19:30:31.824Z,100196.37
2023-03-04T19:33:37.778Z,100192.94
2023-03-04T19:36:40.539Z,100192.16
2023-03-04T19:39:43.569Z,100190.47
2023-03-04T19:42:46.226Z,100190.53
2023-03-04T19:45:55.750Z,100193.94
2023-03-04T19:48:58.369Z,100203.37
2023-03-04T19:52:01.273Z,100205.94
2023-03-04T19:55:05.161Z,100200.75
2023-03-04T19:58:07.515Z,100200.69
2023-03-04T20:01:20.585Z,100200.72
2023-03-04T20:04:23.226Z,100205.91
2023-03-04T20:07:25.593Z,100208.50
2023-03-04T20:10:36.799Z,100199.87
2023-03-04T20:13:39.307Z,100217.00
2023-03-04T20:16:43.461Z,100219.63
2023-03-04T20:19:47.474Z,100213.69
2023-03-04T20:22:50.099Z,100214.59
2023-03-04T20:25:53.503Z,100213.72
2023-03-04T20:28:56.772Z,100212.03
2023-03-04T20:31:59.367Z,100217.19
2023-03-04T20:35:02.097Z,100213.78
2023-03-04T20:38:04.522Z,100216.37
2023-03-04T20:41:07.198Z,100213.00
2023-03-04T20:44:09.655Z,100211.31
2023-03-04T20:47:12.254Z,100218.19
2023-03-04T20:50:16.433Z,100212.16
2023-03-04T20:53:19.156Z,100206.13
2023-03-04T20:56:22.239Z,100210.37
2023-03-04T20:59:24.975Z,100209.59
2023-03-04T21:02:27.563Z,100207.03
2023-03-04T21:05:30.890Z,100212.22
2023-03-04T21:08:33.600Z,100218.22
2023-03-04T21:11:40.304Z,100209.69
2023-03-04T21:14:42.792Z,100206.25
2023-03-04T21:17:45.505Z,100208.81
2023-03-04T21:20:49.060Z,100211.38
2023-03-04T21:23:53.100Z,100208.81
2023-03-04T21:26:55.732Z,100207.91
2023-03-04T21:29:58.603Z,100203.66
2023-03-04T21:33:00.961Z,100205.41
2023-03-04T21:36:04.168Z,100191.72
2023-03-04T21:39:07.016Z,100201.12
2023-03-04T21:42:10.365Z,100191.72
2023-03-04T21:45:12.730Z,100188.28
2023-03-04T21:48:15.369Z,100195.16
2023-03-04T21:51:17.950Z,100196.03
2023-03-04T21:54:20.638Z,100202.06
2023-03-04T21:57:23.034Z,100196.09
2023-03-04T22:00:25.919Z,100196.09
2023-03-04T22:03:28.981Z,100185.00
2023-03-04T22:06:33.458Z,100208.06
2023-03-04T22:09:36.427Z,100213.19
2023-03-04T22:12:38.844Z,100202.97
2023-03-04T22:15:43.133Z,100204.69
2023-03-04T22:18:45.445Z,100197.84
2023-03-04T22:21:48.091Z,100203.84
2023-03-04T22:24:52.301Z,100195.31
2023-03-04T22:27:55.024Z,100201.28
2023-03-04T22:30:57.879Z,100199.59
2023-03-04T22:34:01.656Z,100212.41
2023-03-04T22:37:04.058Z,100209.00
2023-03-04T22:40:07.200Z,100207.28
2023-03-04T22:43:09.679Z,100204.72
2023-03-04T22:46:13.807Z,100207.28
2023-03-04T22:49:16.241Z,100217.53
2023-03-04T22:52:18.910Z,100217.53
2023-03-04T22:55:22.227Z,100221.81
2023-03-04T22:58:24.953Z,100220.94
2023-03-04T23:01:27.322Z,100214.09
2023-03-04T23:04:30.014Z,100213.25
2023-03-04T23:07:32.251Z,100220.09
2023-03-04T23:10:34.796Z,100210.72
2023-03-04T23:13:38.028Z,100203.00
2023-03-04T23:16:43.285Z,100206.44
2023-03-04T23:19:45.661Z,100209.84
2023-03-04T23:22:48.627Z,100207.31
2023-03-04T23:25:52.115Z,100216.69
2023-03-04T23:28:56.985Z,100224.38
2023-03-04T23:31:59.542Z,100228.66
2023-03-04T23:35:02.600Z,100237.19
2023-03-04T23:38:05.199Z,100231.19
2023-03-04T23:41:07.976Z,100231.22
2023-03-04T23:44:11.550Z,100230.34
2023-03-04T23:47:14.204Z,100226.94
2023-03-04T23:50:16.886Z,100232.06
2023-03-04T23:53:19.811Z,100232.91
2023-03-04T23:56:24.174Z,100236.34
2023-03-04T23:59:27.154Z,100247.41
